createdAt,value
2023-03-13T00:01:53.119Z,2.00
2023-03-13T00:04:19.878Z,1.73
2023-03-13T00:06:46.540Z,2.20
2023-03-13T00:09:15.416Z,1.60
2023-03-13T00:11:42.691Z,1.75
2023-03-13T00:14:09.960Z,2.05
2023-03-13T00:16:37.687Z,2.05
2023-03-13T00:19:06.127Z,1.80
2023-03-13T00:21:33.554Z,2.38
2023-03-13T00:24:00.876Z,2.30
2023-03-13T00:26:28.965Z,2.17
2023-03-13T00:28:56.032Z,1.90
2023-03-13T00:31:31.392Z,2.40
2023-03-13T00:34:02.930Z,2.17
2023-03-13T00:36:35.226Z,1.80
2023-03-13T00:41:30.684Z,1.75
2023-03-13T00:43:58.043Z,1.90
2023-03-13T00:46:27.092Z,2.25
2023-03-13T00:48:53.830Z,1.65
2023-03-13T00:51:21.711Z,1.88
2023-03-13T00:53:48.995Z,2.60
2023-03-13T00:56:18.400Z,1.83
2023-03-13T00:58:46.738Z,2.08
2023-03-13T01:01:18.029Z,2.00
2023-03-13T01:03:47.371Z,1.98
2023-03-13T01:06:16.462Z,1.80
2023-03-13T01:08:43.400Z,1.88
2023-03-13T01:11:13.382Z,1.77
2023-03-13T01:13:40.456Z,1.58
2023-03-13T01:16:13.130Z,1.92
2023-03-13T01:18:42.929Z,2.28
2023-03-13T01:21:10.395Z,2.10
2023-03-13T01:23:37.503Z,2.15
2023-03-13T01:26:06.953Z,1.77
2023-03-13T01:28:34.646Z,1.98
2023-03-13T01:31:10.036Z,2.45
2023-03-13T01:33:36.718Z,2.10
2023-03-13T01:36:04.393Z,1.88
2023-03-13T01:38:31.086Z,2.10
2023-03-13T01:40:57.799Z,1.98
2023-03-13T01:43:27.825Z,2.03
2023-03-13T01:46:18.995Z,2.13
2023-03-13T01:48:54.404Z,2.30
2023-03-13T01:51:27.075Z,2.00
2023-03-13T01:54:00.802Z,2.65
2023-03-13T01:56:34.301Z,2.38
2023-03-13T01:59:02.029Z,2.38
2023-03-13T02:01:29.806Z,2.30
2023-03-13T02:03:58.136Z,2.38
2023-03-13T02:06:28.273Z,2.58
2023-03-13T02:08:59.880Z,2.28
2023-03-13T02:11:35.620Z,2.13
2023-03-13T02:14:04.662Z,2.78
2023-03-13T02:16:34.754Z,2.92
2023-03-13T02:19:08.123Z,2.47
2023-03-13T02:21:47.450Z,2.60
2023-03-13T02:24:20.283Z,2.80
2023-03-13T02:26:47.045Z,3.38
2023-03-13T02:29:18.422Z,2.45
2023-03-13T02:31:47.357Z,2.47
2023-03-13T02:34:22.171Z,2.83
2023-03-13T02:36:49.627Z,2.55
2023-03-13T02:39:18.444Z,3.00
2023-03-13T02:41:46.696Z,2.78
2023-03-13T02:44:13.384Z,2.50
2023-03-13T02:46:52.454Z,2.83
2023-03-13T02:49:27.440Z,2.90
2023-03-13T02:51:56.845Z,2.75
2023-03-13T02:54:28.199Z,2.25
2023-03-13T02:56:57.919Z,2.40
2023-03-13T02:59:25.626Z,2.58
2023-03-13T03:01:52.706Z,2.08
2023-03-13T03:04:21.616Z,2.28
2023-03-13T03:06:48.907Z,2.90
2023-03-13T03:09:16.483Z,3.03
2023-03-13T03:11:43.138Z,2.30
2023-03-13T03:14:11.423Z,2.35
2023-03-13T03:16:38.580Z,2.65
2023-03-13T03:19:06.582Z,2.60
2023-03-13T03:21:34.144Z,1.95
2023-03-13T03:24:01.350Z,2.70
2023-03-13T03:26:28.002Z,3.22
2023-03-13T03:28:54.696Z,3.25
2023-03-13T03:31:21.431Z,3.25
2023-03-13T03:33:48.508Z,2.88
2023-03-13T03:36:18.292Z,2.58
2023-03-13T03:38:45.401Z,2.90
2023-03-13T03:41:14.217Z,2.58
2023-03-13T03:43:41.691Z,2.35
2023-03-13T03:46:09.013Z,2.67
2023-03-13T03:48:36.544Z,2.83
2023-03-13T03:51:03.338Z,2.90
2023-03-13T03:53:29.949Z,2.22
2023-03-13T03:55:56.548Z,2.65
2023-03-13T03:58:23.177Z,3.38
2023-03-13T04:00:49.828Z,3.15
2023-03-13T04:03:16.903Z,3.42
2023-03-13T04:05:44.358Z,2.88
2023-03-13T04:08:10.933Z,3.30
2023-03-13T04:10:37.625Z,3.45
2023-03-13T04:13:04.287Z,3.88
2023-03-13T04:15:30.861Z,3.13
2023-03-13T04:17:57.509Z,2.85
2023-03-13T04:20:24.206Z,3.05
2023-03-13T04:22:50.940Z,3.55
2023-03-13T04:25:17.919Z,3.85
2023-03-13T04:27:44.553Z,5.10
2023-03-13T04:30:11.704Z,7.55
2023-03-13T04:32:38.662Z,6.63
2023-03-13T04:35:05.627Z,7.03
2023-03-13T04:37:32.259Z,5.95
2023-03-13T04:39:58.990Z,7.57
2023-03-13T04:42:26.021Z,6.80
2023-03-13T04:44:52.605Z,6.78
2023-03-13T04:47:19.319Z,6.57
2023-03-13T04:49:45.908Z,5.85
2023-03-13T04:52:13.109Z,8.18
2023-03-13T04:54:39.727Z,5.97
2023-03-13T04:57:06.355Z,5.50
2023-03-13T04:59:33.255Z,5.50
2023-03-13T05:01:59.918Z,5.53
2023-03-13T05:04:26.526Z,5.70
2023-03-13T05:06:53.239Z,4.68
2023-03-13T05:09:19.862Z,4.20
2023-03-13T05:11:46.590Z,5.18
2023-03-13T05:14:13.254Z,5.25
2023-03-13T05:16:39.915Z,4.95
2023-03-13T05:19:06.515Z,6.00
2023-03-13T05:21:33.160Z,6.65
2023-03-13T05:23:59.833Z,5.63
2023-03-13T05:26:26.555Z,5.60
2023-03-13T05:28:53.188Z,5.55
2023-03-13T05:31:19.833Z,5.60
2023-03-13T05:33:46.445Z,5.32
2023-03-13T05:36:13.085Z,6.35
2023-03-13T05:38:39.899Z,6.15
2023-03-13T05:41:06.519Z,4.25
2023-03-13T05:43:33.157Z,3.97
2023-03-13T05:45:59.936Z,3.47
2023-03-13T05:48:26.558Z,3.25
2023-03-13T05:50:53.162Z,3.72
2023-03-13T05:53:19.749Z,2.72
2023-03-13T05:55:46.392Z,3.50
2023-03-13T05:58:13.089Z,3.47
2023-03-13T06:00:39.836Z,3.53
2023-03-13T06:03:06.465Z,4.07
2023-03-13T06:05:33.038Z,4.47
2023-03-13T06:07:59.608Z,4.10
2023-03-13T06:10:26.293Z,3.75
2023-03-13T06:12:54.392Z,4.03
2023-03-13T06:15:21.193Z,4.00
2023-03-13T06:17:47.846Z,4.60
2023-03-13T06:20:15.163Z,6.35
2023-03-13T06:22:42.274Z,4.13
2023-03-13T06:25:09.490Z,4.60
2023-03-13T06:27:36.197Z,4.72
2023-03-13T06:30:03.326Z,5.50
2023-03-13T06:32:30.231Z,5.03
2023-03-13T06:34:57.028Z,8.35
2023-03-13T06:37:23.972Z,6.80
2023-03-13T06:39:50.617Z,7.05
2023-03-13T06:42:17.234Z,4.90
2023-03-13T06:44:44.755Z,4.80
2023-03-13T06:47:13.039Z,3.40
2023-03-13T06:49:41.005Z,5.05
2023-03-13T06:52:07.605Z,3.58
2023-03-13T06:54:34.263Z,2.72
2023-03-13T06:57:00.924Z,3.65
2023-03-13T06:59:27.655Z,3.97
2023-03-13T07:01:54.299Z,3.05
2023-03-13T07:04:20.980Z,2.95
2023-03-13T07:06:47.705Z,3.25
2023-03-13T07:09:14.393Z,3.05
2023-03-13T07:11:40.966Z,2.58
2023-03-13T07:14:16.417Z,3.10
2023-03-13T07:16:45.066Z,2.40
2023-03-13T07:19:11.880Z,2.10
2023-03-13T07:21:38.487Z,2.45
2023-03-13T07:24:05.473Z,2.65
2023-03-13T07:26:32.406Z,2.60
2023-03-13T07:28:59.560Z,2.33
2023-03-13T07:31:26.544Z,2.15
2023-03-13T07:33:56.557Z,2.50
2023-03-13T07:36:23.880Z,3.47
2023-03-13T07:38:52.224Z,2.80
2023-03-13T07:41:20.329Z,2.33
2023-03-13T07:43:47.163Z,3.22
2023-03-13T07:46:18.847Z,3.03
2023-03-13T07:48:46.551Z,2.88
2023-03-13T07:51:20.535Z,3.13
2023-03-13T07:53:51.235Z,4.03
2023-03-13T07:56:21.224Z,3.17
2023-03-13T07:58:48.691Z,2.10
2023-03-13T08:01:26.054Z,2.78
2023-03-13T08:03:55.590Z,2.97
2023-03-13T08:06:24.592Z,3.33
2023-03-13T08:08:52.117Z,2.45
2023-03-13T08:11:21.547Z,2.10
2023-03-13T08:13:50.162Z,4.30
2023-03-13T08:16:19.842Z,2.60
2023-03-13T08:18:49.208Z,2.20
2023-03-13T08:21:19.210Z,2.40
2023-03-13T08:23:45.795Z,2.03
2023-03-13T08:26:15.420Z,1.73
2023-03-13T08:28:43.161Z,2.13
2023-03-13T08:31:14.927Z,2.00
2023-03-13T08:33:43.939Z,2.60
2023-03-13T08:36:28.792Z,1.40
2023-03-13T08:38:59.075Z,2.13
2023-03-13T08:41:28.960Z,1.75
2023-03-13T08:43:57.320Z,1.95
2023-03-13T08:46:24.646Z,2.00
2023-03-13T08:48:53.520Z,2.03
2023-03-13T08:51:23.402Z,2.00
2023-03-13T08:53:51.448Z,1.63
2023-03-13T08:56:20.665Z,1.80
2023-03-13T08:58:51.284Z,2.55
2023-03-13T09:01:18.196Z,2.30
2023-03-13T09:03:44.920Z,1.90
2023-03-13T09:06:12.052Z,2.20
2023-03-13T09:08:39.643Z,2.42
2023-03-13T09:11:17.640Z,2.65
2023-03-13T09:13:46.876Z,2.78
2023-03-13T09:16:22.231Z,2.70
2023-03-13T09:18:50.249Z,2.95
2023-03-13T09:21:19.306Z,2.55
2023-03-13T09:23:45.942Z,2.58
2023-03-13T09:26:12.872Z,3.17
2023-03-13T09:28:42.058Z,3.03
2023-03-13T09:31:14.789Z,3.05
2023-03-13T09:33:42.384Z,3.67
2023-03-13T09:36:09.676Z,3.40
2023-03-13T09:38:36.643Z,3.90
2023-03-13T09:41:15.879Z,3.00
2023-03-13T09:43:48.321Z,3.22
2023-03-13T09:46:23.319Z,2.88
2023-03-13T09:48:56.098Z,3.22
2023-03-13T09:51:42.762Z,3.08
2023-03-13T09:54:39.722Z,3.15
2023-03-13T09:57:28.779Z,2.97
2023-03-13T10:00:02.613Z,2.78
2023-03-13T10:02:33.788Z,3.08
2023-03-13T10:05:19.169Z,2.42
2023-03-13T10:07:45.867Z,3.67
2023-03-13T10:10:21.468Z,3.25
2023-03-13T10:12:52.774Z,2.75
2023-03-13T10:15:33.387Z,3.08
2023-03-13T10:18:05.382Z,2.15
2023-03-13T10:20:36.203Z,2.17
2023-03-13T10:23:14.873Z,2.63
2023-03-13T10:25:41.526Z,2.95
2023-03-13T10:28:15.772Z,3.00
2023-03-13T10:31:14.096Z,3.42
2023-03-13T10:33:43.059Z,3.22
2023-03-13T10:36:12.961Z,2.80
2023-03-13T10:38:51.545Z,2.38
2023-03-13T10:41:38.464Z,2.55
2023-03-13T10:44:15.382Z,3.40
2023-03-13T10:46:44.077Z,3.40
2023-03-13T10:49:19.629Z,3.45
2023-03-13T10:51:54.967Z,3.70
2023-03-13T10:54:25.556Z,3.42
2023-03-13T10:57:07.464Z,3.38
2023-03-13T10:59:43.333Z,2.67
2023-03-13T11:02:35.553Z,3.33
2023-03-13T11:05:32.898Z,3.20
2023-03-13T11:08:12.794Z,2.67
2023-03-13T11:10:52.944Z,3.70
2023-03-13T11:13:36.997Z,3.67
2023-03-13T11:16:29.317Z,3.28
2023-03-13T11:19:14.300Z,3.38
2023-03-13T11:22:05.739Z,3.45
2023-03-13T11:24:55.670Z,3.08
2023-03-13T11:27:31.276Z,3.15
2023-03-13T11:30:00.979Z,2.67
2023-03-13T11:32:37.497Z,3.55
2023-03-13T11:35:15.575Z,3.10
2023-03-13T11:37:44.560Z,2.42
2023-03-13T11:40:17.255Z,2.83
2023-03-13T11:42:46.776Z,4.55
2023-03-13T11:45:50.986Z,3.50
2023-03-13T11:48:51.232Z,3.28
2023-03-13T11:51:32.626Z,3.10
2023-03-13T11:54:20.398Z,4.38
2023-03-13T11:56:57.611Z,3.78
2023-03-13T11:59:30.192Z,3.88
2023-03-13T12:02:18.309Z,3.47
2023-03-13T12:04:49.247Z,3.42
2023-03-13T12:07:37.176Z,3.25
2023-03-13T12:10:27.913Z,4.43
2023-03-13T12:13:00.646Z,3.58
2023-03-13T12:15:29.611Z,3.55
2023-03-13T12:18:17.804Z,4.72
2023-03-13T12:20:53.585Z,5.10
2023-03-13T12:23:36.942Z,3.42
2023-03-13T12:26:10.382Z,3.17
2023-03-13T12:29:06.562Z,3.10
2023-03-13T12:31:57.390Z,2.72
2023-03-13T12:34:50.633Z,3.88
2023-03-13T12:37:25.347Z,7.85
2023-03-13T12:40:28.502Z,3.95
2023-03-13T12:43:06.222Z,3.38
2023-03-13T12:45:37.177Z,3.33
2023-03-13T12:48:13.008Z,2.97
2023-03-13T12:50:58.116Z,3.58
2023-03-13T12:53:42.499Z,3.17
2023-03-13T12:56:18.213Z,3.22
2023-03-13T12:58:56.693Z,3.53
2023-03-13T13:01:47.744Z,3.15
2023-03-13T13:04:18.241Z,3.17
2023-03-13T13:07:05.907Z,2.90
2023-03-13T13:09:36.364Z,2.78
2023-03-13T13:12:19.921Z,2.42
2023-03-13T13:14:49.643Z,2.45
2023-03-13T13:17:19.175Z,2.50
2023-03-13T13:19:47.975Z,3.22
2023-03-13T13:22:40.035Z,2.75
2023-03-13T13:25:12.997Z,2.78
2023-03-13T13:27:39.559Z,2.47
2023-03-13T13:30:18.592Z,2.38
2023-03-13T13:32:48.297Z,2.65
2023-03-13T13:35:24.287Z,3.10
2023-03-13T13:37:51.149Z,2.20
2023-03-13T13:40:31.436Z,1.92
2023-03-13T13:43:04.816Z,2.08
2023-03-13T13:45:37.995Z,2.40
2023-03-13T13:48:24.368Z,2.45
2023-03-13T13:51:14.008Z,2.50
2023-03-13T13:53:54.121Z,2.85
2023-03-13T13:56:37.894Z,3.22
2023-03-13T13:59:25.613Z,2.97
2023-03-13T14:02:15.155Z,2.30
2023-03-13T14:05:01.071Z,2.95
2023-03-13T14:07:41.681Z,2.55
2023-03-13T14:10:27.308Z,2.63
2023-03-13T14:12:56.642Z,2.95
2023-03-13T14:15:32.124Z,2.45
2023-03-13T14:18:01.371Z,2.67
2023-03-13T14:20:39.076Z,2.80
2023-03-13T14:23:06.291Z,2.10
2023-03-13T14:25:48.388Z,2.13
2023-03-13T14:28:23.889Z,2.30
2023-03-13T14:30:53.159Z,2.78
2023-03-13T14:33:20.388Z,2.53
2023-03-13T14:35:47.983Z,1.92
2023-03-13T14:38:19.220Z,2.65
2023-03-13T14:40:46.166Z,2.40
2023-03-13T14:43:21.603Z,2.13
2023-03-13T14:45:49.631Z,2.65
2023-03-13T14:48:23.773Z,2.50
2023-03-13T14:50:59.627Z,3.10
2023-03-13T14:53:35.945Z,3.20
2023-03-13T14:56:16.153Z,2.45
2023-03-13T14:58:42.890Z,3.13
2023-03-13T15:01:30.999Z,2.45
2023-03-13T15:03:57.767Z,2.40
2023-03-13T15:06:25.250Z,2.78
2023-03-13T15:09:10.115Z,2.28
2023-03-13T15:11:41.279Z,3.00
2023-03-13T15:14:37.597Z,3.03
2023-03-13T15:17:11.506Z,3.03
2023-03-13T15:19:38.151Z,5.18
2023-03-13T15:22:04.811Z,3.00
2023-03-13T15:24:31.763Z,2.55
2023-03-13T15:26:58.416Z,2.20
2023-03-13T15:29:25.213Z,2.40
2023-03-13T15:31:52.137Z,2.38
2023-03-13T15:34:21.021Z,2.90
2023-03-13T15:36:47.709Z,3.35
2023-03-13T15:39:21.178Z,2.75
2023-03-13T15:41:47.945Z,2.17
2023-03-13T15:44:14.843Z,2.65
2023-03-13T15:46:41.530Z,2.05
2023-03-13T15:49:13.043Z,2.45
2023-03-13T15:51:39.811Z,3.08
2023-03-13T15:54:06.461Z,2.70
2023-03-13T15:56:36.436Z,2.50
2023-03-13T15:59:10.530Z,2.38
2023-03-13T16:01:37.580Z,2.63
2023-03-13T16:04:04.740Z,2.20
2023-03-13T16:06:32.372Z,2.45
2023-03-13T16:09:01.052Z,3.00
2023-03-13T16:11:29.080Z,2.80
2023-03-13T16:13:57.457Z,3.33
2023-03-13T16:16:36.575Z,2.90
2023-03-13T16:19:04.368Z,3.75
2023-03-13T16:21:34.643Z,3.28
2023-03-13T16:24:01.501Z,3.05
2023-03-13T16:26:31.016Z,3.85
2023-03-13T16:28:58.475Z,5.82
2023-03-13T16:31:31.247Z,7.20
2023-03-13T16:33:58.930Z,7.40
2023-03-13T16:36:29.639Z,5.13
2023-03-13T16:38:56.364Z,7.15
2023-03-13T16:41:25.013Z,6.93
2023-03-13T16:43:51.678Z,6.15
2023-03-13T16:46:23.520Z,5.32
2023-03-13T16:48:51.264Z,4.93
2023-03-13T16:51:23.729Z,4.80
2023-03-13T16:53:53.520Z,4.00
2023-03-13T16:56:27.095Z,4.35
2023-03-13T16:58:54.683Z,4.97
2023-03-13T17:01:24.919Z,5.40
2023-03-13T17:03:52.079Z,4.65
2023-03-13T17:06:24.275Z,6.25
2023-03-13T17:08:51.064Z,5.93
2023-03-13T17:11:20.976Z,5.40
2023-03-13T17:13:49.450Z,4.95
2023-03-13T17:16:16.033Z,4.57
2023-03-13T17:18:44.259Z,4.35
2023-03-13T17:21:13.288Z,5.40
2023-03-13T17:23:40.092Z,7.85
2023-03-13T17:26:23.111Z,6.43
2023-03-13T17:28:52.441Z,7.28
2023-03-13T17:31:20.383Z,6.47
2023-03-13T17:33:47.543Z,6.50
2023-03-13T17:36:20.086Z,7.47
2023-03-13T17:38:48.852Z,8.95
2023-03-13T17:41:18.381Z,10.45
2023-03-13T17:43:45.364Z,7.82
2023-03-13T17:46:19.523Z,7.18
2023-03-13T17:48:48.269Z,6.18
2023-03-13T17:51:21.443Z,7.47
2023-03-13T17:53:48.966Z,7.18
2023-03-13T17:56:20.228Z,8.38
2023-03-13T17:58:50.155Z,8.20
2023-03-13T18:01:19.873Z,8.27
2023-03-13T18:03:47.646Z,8.13
2023-03-13T18:06:26.315Z,8.63
2023-03-13T18:08:56.068Z,9.60
2023-03-13T18:11:24.609Z,8.43
2023-03-13T18:13:51.939Z,7.18
2023-03-13T18:16:30.421Z,6.45
2023-03-13T18:18:57.541Z,7.40
2023-03-13T18:21:24.761Z,6.32
2023-03-13T18:23:53.620Z,8.20
2023-03-13T18:26:23.247Z,8.50
2023-03-13T18:28:50.618Z,9.15
2023-03-13T18:31:20.453Z,8.45
2023-03-13T18:33:48.024Z,8.32
2023-03-13T18:36:20.055Z,9.32
2023-03-13T18:38:48.158Z,7.60
2023-03-13T18:41:15.589Z,9.40
2023-03-13T18:43:43.487Z,7.68
2023-03-13T18:46:27.825Z,6.03
2023-03-13T18:48:55.132Z,7.65
2023-03-13T18:51:26.772Z,9.45
2023-03-13T18:53:54.904Z,17.08
2023-03-13T18:56:23.017Z,20.58
2023-03-13T18:58:51.446Z,18.27
2023-03-13T19:01:21.385Z,20.08
2023-03-13T19:03:49.159Z,17.17
2023-03-13T19:06:26.076Z,10.15
2023-03-13T19:09:01.796Z,9.57
2023-03-13T19:11:31.102Z,11.02
2023-03-13T19:13:58.330Z,10.85
2023-03-13T19:16:37.851Z,11.45
2023-03-13T19:19:11.221Z,11.38
2023-03-13T19:21:37.819Z,10.73
2023-03-13T19:24:04.746Z,9.95
2023-03-13T19:26:33.184Z,10.25
2023-03-13T19:28:59.999Z,12.25
2023-03-13T19:31:27.193Z,9.20
2023-03-13T19:33:54.640Z,11.75
2023-03-13T19:36:23.572Z,9.65
2023-03-13T19:38:51.107Z,7.25
2023-03-13T19:41:17.949Z,8.55
2023-03-13T19:43:45.583Z,7.88
2023-03-13T19:46:27.785Z,8.20
2023-03-13T19:48:56.806Z,7.40
2023-03-13T19:51:24.772Z,8.77
2023-03-13T19:53:51.658Z,9.57
2023-03-13T19:56:32.380Z,9.48
2023-03-13T19:59:04.203Z,9.70
2023-03-13T20:01:31.938Z,8.90
2023-03-13T20:03:58.862Z,7.65
2023-03-13T20:06:28.126Z,7.65
2023-03-13T20:08:59.077Z,8.82
2023-03-13T20:11:27.133Z,9.57
2023-03-13T20:13:54.026Z,8.32
2023-03-13T20:16:21.065Z,9.63
2023-03-13T20:18:51.535Z,8.98
2023-03-13T20:21:19.234Z,8.48
2023-03-13T20:23:48.631Z,8.95
2023-03-13T20:26:17.575Z,8.35
2023-03-13T20:28:47.181Z,9.38
2023-03-13T20:31:14.866Z,9.02
2023-03-13T20:33:41.617Z,9.43
2023-03-13T20:36:14.016Z,10.65
2023-03-13T20:38:41.878Z,8.75
2023-03-13T20:41:09.222Z,9.43
2023-03-13T20:43:36.957Z,11.05
2023-03-13T20:46:07.182Z,10.38
2023-03-13T20:48:42.462Z,9.90
2023-03-13T20:51:09.674Z,10.20
2023-03-13T20:53:38.270Z,9.20
2023-03-13T20:56:07.193Z,7.82
2023-03-13T20:58:37.798Z,8.93
2023-03-13T21:01:06.973Z,8.48
2023-03-13T21:03:35.717Z,9.40
2023-03-13T21:06:15.910Z,9.88
2023-03-13T21:08:43.331Z,8.90
2023-03-13T21:11:14.586Z,9.02
2023-03-13T21:13:41.513Z,10.23
2023-03-13T21:18:53.734Z,10.55
2023-03-13T21:21:22.365Z,10.75
2023-03-13T21:23:52.114Z,11.30
2023-03-13T21:26:19.119Z,9.68
2023-03-13T21:28:45.791Z,9.25
2023-03-13T21:31:14.890Z,8.70
2023-03-13T21:33:42.889Z,10.40
2023-03-13T21:36:10.525Z,9.10
2023-03-13T21:38:37.722Z,11.50
2023-03-13T21:41:09.084Z,11.82
2023-03-13T21:43:35.722Z,11.80
2023-03-13T21:46:04.035Z,12.07
2023-03-13T21:48:30.672Z,10.70
2023-03-13T21:50:57.352Z,10.25
2023-03-13T21:53:24.055Z,10.15
2023-03-13T21:55:51.637Z,10.25
2023-03-13T21:58:18.705Z,9.60
2023-03-13T22:00:45.552Z,9.00
2023-03-13T22:03:12.437Z,7.93
2023-03-13T22:05:43.588Z,9.75
2023-03-13T22:08:11.742Z,10.20
2023-03-13T22:10:38.770Z,9.93
2023-03-13T22:13:06.637Z,9.95
2023-03-13T22:15:33.426Z,10.32
2023-03-13T22:18:00.177Z,10.70
2023-03-13T22:20:27.242Z,10.70
2023-03-13T22:22:53.941Z,9.50
2023-03-13T22:25:20.659Z,10.80
2023-03-13T22:27:47.254Z,11.55
2023-03-13T22:30:14.160Z,10.48
2023-03-13T22:32:40.730Z,10.85
2023-03-13T22:35:08.429Z,10.45
2023-03-13T22:37:35.088Z,10.20
2023-03-13T22:40:01.947Z,9.63
2023-03-13T22:42:28.597Z,8.98
2023-03-13T22:44:55.850Z,9.07
2023-03-13T22:47:23.560Z,8.15
2023-03-13T22:49:50.580Z,8.77
2023-03-13T22:52:17.397Z,6.07
2023-03-13T22:54:46.522Z,7.20
2023-03-13T22:57:13.700Z,8.73
2023-03-13T22:59:40.330Z,8.85
2023-03-13T23:02:06.914Z,8.48
2023-03-13T23:04:33.556Z,8.25
2023-03-13T23:07:00.146Z,9.02
2023-03-13T23:09:26.769Z,8.77
2023-03-13T23:11:53.377Z,7.68
2023-03-13T23:14:19.979Z,7.57
2023-03-13T23:16:46.881Z,7.82
2023-03-13T23:19:13.679Z,6.97
2023-03-13T23:21:40.402Z,6.93
2023-03-13T23:24:07.423Z,8.15
2023-03-13T23:26:34.117Z,7.53
2023-03-13T23:29:00.794Z,6.57
2023-03-13T23:31:27.435Z,7.03
2023-03-13T23:33:54.087Z,7.38
2023-03-13T23:36:20.774Z,6.65
2023-03-13T23:38:52.370Z,6.38
2023-03-13T23:41:20.374Z,6.28
2023-03-13T23:43:47.124Z,7.78
2023-03-13T23:46:23.275Z,6.95
2023-03-13T23:48:53.726Z,5.90
2023-03-13T23:51:20.366Z,6.15
2023-03-13T23:53:47.116Z,6.32
2023-03-13T23:56:14.189Z,6.93
2023-03-13T23:58:41.072Z,6.60
